Deschaillons-Sur-Saint-Laurent, Canada
Current Conditions -  °F | °C
As of 5:00 AM on Friday 19 Dec 2014 (Local Time) from CYRQ Reporting Station
Few Clouds Few Clouds  
Wind Chill: 13°   Ceiling: Unl
Heat Index: 19°   Visibility: 9mi
Dew Point: 18°   Wind: 5mph
Humidity: 93%   Direction: 320°NW
Pressure: 29.95"   Gusts: NA
Location:  46.55°N, 72.12°W
Report Text: CYRQ 191000Z AUTO 32004KT 270V350 9SM FEW021 M07/M08 A2995 RMK SLP144
Loading
Personal Weather Stations






























Interactive Weather Map New forecast layout! Learn more

10-Day Weather Forecast

Advertisements
Track Severe Weather on mobile